Time;durP1;ratioP1;P1;durP2;ratioP2;P2;SDS_P1;SDS_P2;PMS_P1;PMS_P2;Temp;Humidity;BMP_temperature;BMP_pressure;BME280_temperature;BME280_humidity;BME280_pressure;Samples;Min_cycle;Max_cycle;Signal;HPM_P1;HPM_P2
2021/12/29 00:02:24;;;;;;;;;4.50;3.50;;;;;13.80;59.67;100379.28;5074405;28;45324;-67
2021/12/29 00:04:50;;;;;;;;;3.50;3.25;;;;;13.87;59.61;100413.75;5075533;28;47435;-68
2021/12/29 00:07:15;;;;;;;;;7.50;4.75;;;;;13.83;59.85;100401.47;5081809;28;45503;-68
2021/12/29 00:09:40;;;;;;;;;8.50;4.25;;;;;13.84;59.68;100394.28;5057544;27;45165;-68
2021/12/29 00:12:10;;;;;;;;;2.75;2.75;;;;;13.82;59.90;100404.22;5075760;28;45308;-68
2021/12/29 00:14:36;;;;;;;;;3.75;2.00;;;;;13.74;60.04;100399.25;5081056;27;45430;-68
2021/12/29 00:17:03;;;;;;;;;8.50;3.00;;;;;13.83;59.86;100414.00;5079775;27;45618;-68
2021/12/29 00:19:29;;;;;;;;;10.00;4.00;;;;;13.74;59.97;100415.34;5074395;27;45410;-68
2021/12/29 00:21:55;;;;;;;;;12.00;6.00;;;;;13.78;60.23;100411.56;5074452;27;45513;-67
2021/12/29 00:24:20;;;;;;;;;7.25;4.00;;;;;13.73;60.46;100415.41;5064752;28;47446;-67
2021/12/29 00:26:45;;;;;;;;;4.75;4.00;;;;;13.83;60.50;100454.22;5080774;27;45395;-68
2021/12/29 00:29:11;;;;;;;;;8.00;4.50;;;;;13.82;60.29;100466.78;5080146;27;45411;-68
2021/12/29 00:31:36;;;;;;;;;7.50;4.75;;;;;13.80;60.37;100455.28;5060221;28;45394;-68
2021/12/29 00:34:01;;;;;;;;;5.25;3.50;;;;;13.76;60.48;100460.88;5077239;27;46060;-68
2021/12/29 00:36:27;;;;;;;;;7.00;5.25;;;;;13.72;60.65;100460.16;5077567;28;45330;-68
2021/12/29 00:38:53;;;;;;;;;7.00;3.50;;;;;13.75;60.82;100475.22;5073879;27;45402;-68
2021/12/29 00:41:19;;;;;;;;;5.50;4.00;;;;;13.74;60.91;100478.84;5067505;27;45470;-68
2021/12/29 00:43:45;;;;;;;;;4.00;4.00;;;;;13.67;60.88;100463.06;5065798;28;45476;-68
2021/12/29 00:46:13;;;;;;;;;8.00;4.25;;;;;13.76;60.97;100476.97;5078240;27;45374;-68
2021/12/29 00:48:43;;;;;;;;;4.75;1.75;;;;;13.76;61.18;100480.50;5076671;27;45768;-68
2021/12/29 00:51:10;;;;;;;;;7.75;4.25;;;;;13.80;61.05;100481.22;5070174;28;45303;-68
2021/12/29 00:53:36;;;;;;;;;6.75;4.00;;;;;13.75;61.27;100478.78;5080809;27;45296;-67
2021/12/29 00:56:01;;;;;;;;;5.25;4.25;;;;;13.79;61.08;100487.53;5072452;28;45628;-68
2021/12/29 00:58:28;;;;;;;;;6.75;3.00;;;;;13.77;61.23;100494.81;5079393;27;45481;-68
2021/12/29 01:00:53;;;;;;;;;7.25;4.25;;;;;13.77;61.46;100484.94;5070595;28;45601;-68
2021/12/29 01:03:19;;;;;;;;;7.00;2.00;;;;;13.71;61.55;100475.38;5073672;27;46143;-68
2021/12/29 01:05:45;;;;;;;;;6.00;4.00;;;;;13.78;61.36;100472.38;5076440;27;46702;-68
2021/12/29 01:08:11;;;;;;;;;5.75;3.75;;;;;13.80;61.39;100478.53;5078774;28;45466;-68
2021/12/29 01:10:39;;;;;;;;;4.00;4.00;;;;;13.80;61.15;100476.75;5078259;27;45444;-68
2021/12/29 01:13:06;;;;;;;;;5.75;5.75;;;;;13.78;61.59;100475.06;5079836;27;46323;-68
2021/12/29 01:16:08;;;;;;;;;8.50;4.00;;;;;13.82;61.61;100490.06;5075745;28;45337;-68
2021/12/29 01:18:36;;;;;;;;;3.75;2.00;;;;;13.80;61.57;100498.19;5084845;27;45385;-68
2021/12/29 01:21:01;;;;;;;;;3.00;3.00;;;;;13.78;61.50;100493.84;5059134;28;46102;-68
2021/12/29 01:23:27;;;;;;;;;7.50;4.50;;;;;13.78;61.48;100491.16;5073814;27;45470;-68
2021/12/29 01:25:52;;;;;;;;;7.75;4.25;;;;;13.84;61.72;100507.81;5061281;28;45315;-68
2021/12/29 01:28:18;;;;;;;;;6.25;4.00;;;;;13.85;61.70;100506.03;5076411;28;45429;-68
2021/12/29 01:30:44;;;;;;;;;3.00;2.00;;;;;13.82;61.71;100493.63;5079773;27;45353;-68
2021/12/29 01:33:10;;;;;;;;;6.50;3.50;;;;;13.86;61.51;100492.50;5079988;27;46355;-68
2021/12/29 01:35:37;;;;;;;;;6.00;4.50;;;;;13.80;61.64;100483.91;5080319;28;45295;-68
2021/12/29 01:38:04;;;;;;;;;6.00;3.50;;;;;13.88;61.76;100495.13;5079994;28;45491;-68
2021/12/29 01:40:31;;;;;;;;;9.25;4.75;;;;;13.88;61.89;100484.38;5080248;28;45230;-68
2021/12/29 01:42:57;;;;;;;;;4.25;4.25;;;;;13.86;61.63;100491.66;5076825;28;45430;-68
2021/12/29 01:45:22;;;;;;;;;4.75;4.25;;;;;13.92;61.68;100485.97;5078533;27;45459;-68
2021/12/29 01:47:48;;;;;;;;;6.25;5.50;;;;;13.92;61.56;100487.81;5078541;28;45327;-68
2021/12/29 01:50:15;;;;;;;;;5.00;3.00;;;;;13.93;61.06;100492.22;5077950;28;45353;-68
2021/12/29 01:52:42;;;;;;;;;6.50;4.25;;;;;13.95;61.81;100501.94;5068626;28;46041;-68
2021/12/29 01:55:14;;;;;;;;;6.00;3.00;;;;;13.97;61.74;100499.19;5060346;28;45362;-68
2021/12/29 01:57:40;;;;;;;;;6.75;5.50;;;;;13.99;61.64;100508.88;5061472;28;45452;-68
2021/12/29 02:00:14;;;;;;;;;4.75;3.00;;;;;14.00;61.60;100507.94;5079211;27;45445;-68
2021/12/29 02:02:41;;;;;;;;;6.25;4.00;;;;;13.95;61.64;100495.69;5067466;27;46687;-68
2021/12/29 02:05:07;;;;;;;;;6.00;3.25;;;;;14.02;61.65;100510.53;5074742;28;45571;-68
2021/12/29 02:07:33;;;;;;;;;4.25;4.25;;;;;13.97;61.89;100516.13;5072703;28;45298;-68
2021/12/29 02:09:59;;;;;;;;;3.75;3.00;;;;;13.92;61.67;100514.63;5059733;28;45447;-68
2021/12/29 02:12:25;;;;;;;;;8.75;4.25;;;;;13.96;61.75;100527.81;5079069;28;45705;-68
2021/12/29 02:14:50;;;;;;;;;4.25;3.00;;;;;13.95;61.91;100514.47;5061591;28;45458;-68
2021/12/29 02:17:15;;;;;;;;;8.00;3.00;;;;;13.97;62.07;100516.13;5082091;27;45644;-68
2021/12/29 02:19:46;;;;;;;;;8.00;4.00;;;;;13.97;62.14;100510.78;5081702;27;45303;-68
2021/12/29 02:22:34;;;;;;;;;5.50;3.00;;;;;13.96;61.66;100511.69;5043062;27;48020;-68
2021/12/29 02:25:19;;;;;;;;;5.50;1.75;;;;;13.98;62.12;100515.19;5079442;28;45320;-68
2021/12/29 02:27:50;;;;;;;;;5.00;3.75;;;;;13.94;62.16;100504.69;5077471;27;45437;-68
2021/12/29 02:30:19;;;;;;;;;4.75;3.00;;;;;13.96;62.07;100509.03;5073929;28;45253;-68
2021/12/29 02:32:45;;;;;;;;;5.00;3.00;;;;;14.00;62.10;100513.31;5079555;28;45180;-68
2021/12/29 02:35:13;;;;;;;;;7.00;4.00;;;;;13.98;62.06;100511.63;5078786;28;45530;-68
2021/12/29 02:37:39;;;;;;;;;4.75;3.00;;;;;14.02;62.27;100518.59;5061067;28;45401;-68
2021/12/29 02:40:06;;;;;;;;;4.50;2.50;;;;;13.97;62.32;100507.22;5079898;28;45265;-68
2021/12/29 02:42:38;;;;;;;;;7.50;3.00;;;;;14.02;62.15;100513.22;5082483;27;45261;-68
2021/12/29 02:45:05;;;;;;;;;4.75;3.50;;;;;13.99;62.14;100511.56;5064604;28;45611;-68
2021/12/29 02:47:31;;;;;;;;;7.50;4.50;;;;;13.93;62.05;100498.44;5083212;27;45354;-68
2021/12/29 02:49:56;;;;;;;;;4.25;4.25;;;;;13.97;62.10;100497.34;5082969;27;45462;-68
2021/12/29 02:52:24;;;;;;;;;9.25;4.00;;;;;13.94;62.26;100486.75;5078164;27;45912;-68
2021/12/29 02:54:50;;;;;;;;;9.25;4.00;;;;;13.98;61.95;100501.78;5082203;27;45208;-68
2021/12/29 02:57:15;;;;;;;;;4.00;3.00;;;;;13.97;62.37;100502.72;5082508;27;45152;-68
2021/12/29 02:59:40;;;;;;;;;7.75;4.25;;;;;13.95;62.26;100495.69;5081859;27;45352;-68
2021/12/29 03:02:06;;;;;;;;;6.00;2.75;;;;;13.97;62.06;100505.41;5079938;28;45360;-68
2021/12/29 03:04:31;;;;;;;;;6.50;3.00;;;;;13.97;62.38;100508.09;5078191;27;45366;-68
2021/12/29 03:06:56;;;;;;;;;9.50;3.00;;;;;13.87;62.42;100488.88;5079658;28;45337;-68
2021/12/29 03:09:22;;;;;;;;;8.00;4.00;;;;;13.93;62.38;100501.13;5076143;28;45410;-68
2021/12/29 03:11:47;;;;;;;;;4.25;4.00;;;;;13.88;62.23;100495.13;5079260;28;45398;-68
2021/12/29 03:14:14;;;;;;;;;4.00;2.50;;;;;13.92;62.31;100507.44;5079776;28;45376;-68
2021/12/29 03:16:40;;;;;;;;;4.25;3.00;;;;;13.90;62.54;100502.16;5086182;27;45316;-68
2021/12/29 03:19:06;;;;;;;;;8.00;5.00;;;;;13.90;63.00;100504.84;5083199;27;45270;-68
2021/12/29 03:21:34;;;;;;;;;5.25;4.50;;;;;13.90;62.72;100512.03;5082179;27;46108;-68
2021/12/29 03:23:59;;;;;;;;;7.25;3.75;;;;;13.89;63.02;100502.22;5082101;27;45421;-68
2021/12/29 03:26:25;;;;;;;;;5.50;3.75;;;;;13.90;62.85;100499.47;5075034;28;45407;-68
2021/12/29 03:28:51;;;;;;;;;5.75;3.50;;;;;13.90;62.96;100507.53;5082260;27;45491;-68
2021/12/29 03:31:18;;;;;;;;;5.25;3.00;;;;;13.90;63.06;100501.28;5081864;27;46188;-68
2021/12/29 03:33:45;;;;;;;;;4.00;1.50;;;;;13.89;63.23;100511.13;5075102;27;45499;-68
2021/12/29 03:36:11;;;;;;;;;2.25;2.00;;;;;13.89;63.14;100513.81;5082225;28;45358;-68
2021/12/29 03:38:39;;;;;;;;;5.75;4.00;;;;;13.89;63.25;100511.13;5076410;27;45477;-68
2021/12/29 03:41:07;;;;;;;;;7.00;4.75;;;;;13.89;63.09;100508.44;5079258;27;46401;-68
2021/12/29 03:43:34;;;;;;;;;5.50;4.00;;;;;13.84;63.28;100494.41;5082059;27;45313;-68
2021/12/29 03:46:01;;;;;;;;;6.00;3.00;;;;;13.86;63.54;100499.69;5071050;27;45277;-67
2021/12/29 03:48:28;;;;;;;;;4.75;2.50;;;;;13.87;63.28;100502.31;5074957;28;45296;-68
2021/12/29 03:50:56;;;;;;;;;2.75;1.75;;;;;13.84;63.46;100499.78;5075126;28;46204;-68
2021/12/29 03:53:21;;;;;;;;;3.25;2.75;;;;;13.87;63.59;100502.31;5080922;28;45439;-68
2021/12/29 03:55:49;;;;;;;;;2.75;1.75;;;;;13.83;63.63;100489.09;5081545;28;45398;-68
2021/12/29 03:58:16;;;;;;;;;4.25;3.50;;;;;13.86;63.89;100489.81;5081510;27;45404;-68
2021/12/29 04:00:42;;;;;;;;;5.50;4.25;;;;;13.85;63.90;100496.16;5081403;28;46490;-68
2021/12/29 04:03:07;;;;;;;;;3.50;2.50;;;;;13.85;63.60;100490.78;5081578;27;45328;-68
2021/12/29 04:05:33;;;;;;;;;5.50;3.50;;;;;13.82;63.75;100484.72;5081681;27;45288;-68
2021/12/29 04:07:59;;;;;;;;;3.00;2.00;;;;;13.77;63.78;100476.88;5081631;28;45454;-68
2021/12/29 04:10:25;;;;;;;;;3.25;2.00;;;;;13.73;63.89;100474.41;5080581;28;45374;-68
2021/12/29 04:12:51;;;;;;;;;3.00;2.25;;;;;13.74;63.70;100479.72;5081467;28;45445;-67
2021/12/29 04:15:17;;;;;;;;;2.50;2.00;;;;;13.80;64.10;100491.94;5081516;27;45863;-68
2021/12/29 04:17:45;;;;;;;;;4.00;4.00;;;;;13.80;63.96;100492.84;5079452;27;45431;-68
2021/12/29 04:22:59;;;;;;;;;5.75;3.50;;;;;13.80;63.94;100492.84;5081137;28;45431;-68
2021/12/29 04:25:26;;;;;;;;;2.50;2.50;;;;;13.83;64.11;100497.16;5076778;28;45351;-68
2021/12/29 04:27:56;;;;;;;;;4.00;3.00;;;;;13.82;64.12;100498.13;5081124;28;45421;-68
2021/12/29 04:30:24;;;;;;;;;3.50;1.50;;;;;13.80;64.57;100498.19;5076576;28;46134;-68
2021/12/29 04:32:52;;;;;;;;;4.25;3.25;;;;;13.82;64.55;100503.50;5076695;28;45420;-67
2021/12/29 04:35:17;;;;;;;;;3.25;3.25;;;;;13.76;64.61;100488.56;5080493;28;45488;-68
2021/12/29 04:37:43;;;;;;;;;4.00;3.00;;;;;13.69;64.78;100485.31;5065784;28;45236;-67
2021/12/29 04:40:08;;;;;;;;;3.25;2.00;;;;;13.79;65.03;100498.28;5072791;27;45363;-67
2021/12/29 04:42:34;;;;;;;;;3.00;2.00;;;;;13.77;64.82;100500.16;5075603;27;45345;-67
2021/12/29 04:44:59;;;;;;;;;2.25;2.00;;;;;13.77;64.99;100492.97;5078843;27;45268;-68
2021/12/29 04:47:29;;;;;;;;;3.25;2.00;;;;;13.76;65.11;100485.88;5081136;27;45252;-68
2021/12/29 04:49:59;;;;;;;;;4.75;3.25;;;;;13.74;65.39;100478.84;5080666;28;45465;-67
2021/12/29 04:52:25;;;;;;;;;3.75;3.75;;;;;13.77;65.45;100484.06;5080997;28;45555;-67
2021/12/29 04:54:50;;;;;;;;;4.00;2.75;;;;;13.76;65.54;100480.50;5080407;28;46477;-67
2021/12/29 04:57:15;;;;;;;;;2.25;2.00;;;;;13.77;65.52;100473.34;5084853;27;45390;-67
2021/12/29 04:59:41;;;;;;;;;2.00;2.00;;;;;13.72;65.79;100468.19;5079075;27;46185;-67
2021/12/29 05:02:07;;;;;;;;;4.00;2.50;;;;;13.69;65.70;100471.88;5059817;28;45352;-67
2021/12/29 05:04:34;;;;;;;;;3.75;2.00;;;;;13.70;65.79;100470.97;5076587;28;45232;-67
2021/12/29 05:09:45;;;;;;;;;4.50;3.00;;;;;13.68;66.03;100464.81;5076498;28;45857;-67
2021/12/29 05:12:10;;;;;;;;;4.50;2.25;;;;;13.69;66.11;100463.84;5080274;27;45245;-67
2021/12/29 05:14:36;;;;;;;;;5.25;2.25;;;;;13.66;66.35;100457.78;5081135;28;45334;-67
2021/12/29 05:17:03;;;;;;;;;3.00;2.00;;;;;13.65;66.29;100448.88;5076000;27;45421;-68
2021/12/29 05:19:28;;;;;;;;;3.00;3.00;;;;;13.68;66.42;100454.09;5083189;27;46379;-67
2021/12/29 05:21:54;;;;;;;;;2.00;2.00;;;;;13.67;66.33;100443.44;5080394;27;45297;-67
2021/12/29 05:24:19;;;;;;;;;2.00;2.00;;;;;13.66;66.21;100442.53;5056111;28;45326;-67
2021/12/29 05:26:44;;;;;;;;;3.50;1.75;;;;;13.67;66.65;100441.59;5072920;28;46271;-67
2021/12/29 05:29:10;;;;;;;;;2.00;2.00;;;;;13.69;66.76;100449.56;5079965;27;45454;-67
2021/12/29 05:31:35;;;;;;;;;2.00;2.00;;;;;13.65;66.72;100446.19;5080196;28;45427;-67
2021/12/29 05:34:01;;;;;;;;;2.50;2.00;;;;;13.60;66.79;100439.28;5079939;28;45418;-67
2021/12/29 05:36:27;;;;;;;;;3.50;3.00;;;;;13.61;66.76;100441.91;5072453;28;45367;-67
2021/12/29 05:38:53;;;;;;;;;2.00;2.00;;;;;13.62;66.89;100443.66;5080043;28;45314;-67
2021/12/29 05:41:20;;;;;;;;;4.50;3.00;;;;;13.62;66.80;100434.75;5077288;28;45325;-67
2021/12/29 05:43:45;;;;;;;;;4.00;3.00;;;;;13.62;67.19;100432.06;5073580;28;45424;-67
2021/12/29 05:46:11;;;;;;;;;3.00;3.00;;;;;13.58;67.10;100430.47;5076532;28;45478;-67
2021/12/29 05:48:36;;;;;;;;;2.75;2.75;;;;;13.56;67.33;100432.34;5078229;28;47303;-67
2021/12/29 05:51:02;;;;;;;;;2.75;2.75;;;;;13.56;67.17;100433.22;5079995;28;45352;-67
2021/12/29 05:53:28;;;;;;;;;2.75;2.75;;;;;13.57;67.31;100421.56;5058384;28;45395;-67
2021/12/29 05:55:53;;;;;;;;;3.75;3.00;;;;;13.58;67.34;100433.13;5079815;28;45385;-67
2021/12/29 05:58:19;;;;;;;;;3.00;3.00;;;;;13.58;67.37;100423.31;5076356;28;47247;-68
2021/12/29 06:00:44;;;;;;;;;3.00;2.50;;;;;13.58;67.66;100415.25;5074458;28;45339;-67
2021/12/29 06:03:10;;;;;;;;;4.50;3.25;;;;;13.60;67.54;100425.88;5076543;28;45355;-67
2021/12/29 06:05:37;;;;;;;;;3.75;3.75;;;;;13.57;67.59;100410.84;5079943;27;45397;-67
2021/12/29 06:08:03;;;;;;;;;4.25;3.75;;;;;13.47;67.59;100393.47;5074829;28;45200;-67
2021/12/29 06:10:30;;;;;;;;;3.00;3.00;;;;;13.60;67.56;100417.84;5058314;28;45548;-67
2021/12/29 06:12:55;;;;;;;;;5.00;4.00;;;;;13.63;67.73;100409.63;5079030;28;45169;-67
2021/12/29 06:15:20;;;;;;;;;4.25;4.25;;;;;13.59;67.66;100414.28;5082743;27;45474;-67
2021/12/29 06:17:46;;;;;;;;;4.75;4.75;;;;;13.60;67.61;100410.69;5089982;27;46041;-67
2021/12/29 06:20:12;;;;;;;;;5.00;5.00;;;;;13.60;67.67;100410.69;5092529;27;45469;-67
2021/12/29 06:22:38;;;;;;;;;6.25;6.00;;;;;13.58;67.83;100407.22;5082145;27;45383;-67
2021/12/29 06:25:05;;;;;;;;;4.00;4.00;;;;;13.60;67.81;100416.03;5083772;27;45504;-67
2021/12/29 06:27:34;;;;;;;;;6.50;4.75;;;;;13.59;67.91;100427.69;5082142;27;45276;-67
2021/12/29 06:29:59;;;;;;;;;5.00;5.00;;;;;13.60;68.00;100420.53;5083109;27;45157;-67
2021/12/29 06:32:26;;;;;;;;;4.75;4.75;;;;;13.58;68.12;100420.63;5079321;27;45354;-67
2021/12/29 06:34:51;;;;;;;;;6.25;5.25;;;;;13.58;68.45;100426.00;5086093;27;45477;-67
2021/12/29 06:37:17;;;;;;;;;5.25;5.00;;;;;13.51;68.27;100411.13;5077281;27;45719;-67
2021/12/29 06:39:45;;;;;;;;;5.50;5.50;;;;;13.55;68.37;100422.56;5080629;27;45265;-67
2021/12/29 06:42:12;;;;;;;;;5.00;5.00;;;;;13.52;68.23;100428.97;5083203;27;45568;-67
2021/12/29 06:44:38;;;;;;;;;4.00;4.00;;;;;13.46;68.21;100411.34;5081481;27;45398;-67
2021/12/29 06:47:04;;;;;;;;;3.00;3.00;;;;;13.44;68.44;100418.59;5082886;27;46085;-67
2021/12/29 06:49:30;;;;;;;;;4.00;4.00;;;;;13.50;68.37;100431.72;5085733;27;45478;-67
2021/12/29 06:51:55;;;;;;;;;5.75;5.00;;;;;13.48;68.62;100409.47;5079071;28;45647;-67
2021/12/29 06:54:21;;;;;;;;;2.25;2.00;;;;;13.52;68.45;100423.59;5065066;28;45779;-67
2021/12/29 06:56:46;;;;;;;;;5.00;4.00;;;;;13.47;68.67;100415.78;5065484;28;45438;-67
2021/12/29 06:59:11;;;;;;;;;3.75;3.75;;;;;13.51;68.69;100416.50;5063557;28;45394;-67
2021/12/29 07:01:37;;;;;;;;;4.50;4.00;;;;;13.55;68.46;100422.56;5051819;28;45383;-67
2021/12/29 07:04:03;;;;;;;;;3.25;3.25;;;;;13.53;68.46;100420.84;5078672;28;45618;-67
2021/12/29 07:06:29;;;;;;;;;3.00;3.00;;;;;13.56;68.63;100424.31;5063057;28;45453;-67
2021/12/29 07:08:54;;;;;;;;;4.25;3.75;;;;;13.54;68.77;100421.69;5064038;28;45469;-67
2021/12/29 07:11:20;;;;;;;;;4.00;4.00;;;;;13.53;68.87;100417.28;5059197;28;45471;-67
2021/12/29 07:13:45;;;;;;;;;3.75;3.75;;;;;13.53;68.61;100417.28;5063579;28;45864;-67
2021/12/29 07:16:11;;;;;;;;;3.75;3.00;;;;;13.51;68.86;100417.38;5064661;28;45546;-67
2021/12/29 07:18:37;;;;;;;;;4.00;4.00;;;;;13.55;69.02;100426.13;5063370;28;45298;-67
2021/12/29 07:21:03;;;;;;;;;5.00;3.75;;;;;13.52;68.91;100418.25;5064666;28;45670;-67
2021/12/29 07:23:29;;;;;;;;;3.00;3.00;;;;;13.53;68.79;100419.94;5064666;28;45219;-67
2021/12/29 07:25:54;;;;;;;;;4.75;4.75;;;;;13.48;68.99;100409.47;5056285;28;46082;-67
2021/12/29 07:28:19;;;;;;;;;5.00;5.00;;;;;13.47;69.12;100415.78;5074147;28;45721;-67
2021/12/29 07:30:45;;;;;;;;;4.50;4.50;;;;;13.55;68.92;100419.88;5057093;28;45323;-67
2021/12/29 07:33:10;;;;;;;;;4.25;3.50;;;;;13.55;69.18;100420.78;5056445;28;45563;-67
2021/12/29 07:35:36;;;;;;;;;3.50;3.50;;;;;13.56;69.21;100419.81;5060119;28;45381;-67
2021/12/29 07:38:01;;;;;;;;;7.25;6.00;;;;;13.57;69.09;100415.34;5056002;28;45433;-67
2021/12/29 07:40:27;;;;;;;;;6.75;4.75;;;;;13.55;69.36;100414.53;5054083;28;45339;-67
2021/12/29 07:42:52;;;;;;;;;4.00;4.00;;;;;13.56;69.68;100424.31;5061101;28;45584;-68
2021/12/29 07:45:19;;;;;;;;;5.50;4.00;;;;;13.57;69.81;100421.56;5058959;28;45928;-68
2021/12/29 07:47:47;;;;;;;;;3.00;3.00;;;;;13.52;69.29;100418.25;5058262;28;45407;-68
2021/12/29 07:50:18;;;;;;;;;3.50;3.25;;;;;13.62;69.27;100430.25;5059154;28;46783;-68
2021/12/29 07:52:48;;;;;;;;;4.75;4.75;;;;;13.63;69.33;100441.81;5062980;28;45319;-68
2021/12/29 07:55:15;;;;;;;;;3.50;3.50;;;;;13.52;69.59;100431.66;5077550;28;45424;-69
2021/12/29 07:57:40;;;;;;;;;3.00;3.00;;;;;13.53;69.52;100425.31;5076714;28;45266;-73
2021/12/29 08:00:07;;;;;;;;;5.50;4.50;;;;;13.50;69.43;100423.69;5077357;28;45484;-70
2021/12/29 08:02:34;;;;;;;;;5.00;5.00;;;;;13.58;69.66;100427.78;5074599;28;45456;-70
2021/12/29 08:05:00;;;;;;;;;5.00;5.00;;;;;13.63;69.39;100439.13;5078884;28;48272;-70
2021/12/29 08:07:25;;;;;;;;;4.00;4.00;;;;;13.45;69.66;100415.00;5071742;28;45534;-69
2021/12/29 08:09:52;;;;;;;;;6.00;5.00;;;;;13.56;69.69;100425.16;5079812;27;45421;-70
2021/12/29 08:12:18;;;;;;;;;5.00;5.00;;;;;13.64;69.68;100444.44;5075418;27;45491;-70
2021/12/29 08:14:45;;;;;;;;;4.50;4.50;;;;;13.68;69.86;100462.13;5066124;28;47403;-69
2021/12/29 08:17:11;;;;;;;;;5.25;5.25;;;;;13.57;69.82;100421.56;5080745;27;45584;-70
2021/12/29 08:19:36;;;;;;;;;5.00;5.00;;;;;13.57;69.68;100445.69;5060869;27;45430;-69
2021/12/29 08:22:02;;;;;;;;;5.75;5.75;;;;;13.62;69.83;100457.06;5083709;27;45385;-70
2021/12/29 08:24:27;;;;;;;;;4.50;4.50;;;;;13.65;69.90;100464.97;5075824;28;45498;-69
2021/12/29 08:26:53;;;;;;;;;8.00;5.25;;;;;13.58;70.17;100450.13;5059804;28;45647;-69
2021/12/29 08:29:18;;;;;;;;;9.00;6.25;;;;;13.61;70.07;100460.66;5081719;27;45631;-70
2021/12/29 08:31:44;;;;;;;;;7.50;7.50;;;;;13.69;70.36;100473.72;5068417;27;45562;-70
2021/12/29 08:34:09;;;;;;;;;8.50;7.00;;;;;13.63;70.33;100469.53;5078603;27;46186;-70
2021/12/29 08:36:34;;;;;;;;;8.00;7.25;;;;;13.50;69.98;100442.44;5075505;28;45463;-70
2021/12/29 08:39:00;;;;;;;;;8.00;7.00;;;;;13.63;70.21;100471.31;5054764;28;45526;-70
2021/12/29 08:41:25;;;;;;;;;7.50;6.50;;;;;13.65;70.27;100473.00;5076703;28;45435;-71
2021/12/29 08:43:50;;;;;;;;;7.50;5.75;;;;;13.66;70.47;100465.81;5061651;28;46550;-67
2021/12/29 08:46:17;;;;;;;;;4.75;4.75;;;;;13.72;70.35;100478.94;5067872;27;45359;-67
2021/12/29 08:48:45;;;;;;;;;5.00;5.00;;;;;13.74;70.63;100468.97;5076427;28;45465;-71
2021/12/29 08:51:11;;;;;;;;;5.50;5.50;;;;;13.61;70.54;100441.03;5062513;28;45596;-71
2021/12/29 08:53:37;;;;;;;;;7.00;5.00;;;;;13.75;70.72;100462.69;5080553;28;45368;-70
2021/12/29 08:56:03;;;;;;;;;4.50;4.50;;;;;13.63;70.60;100452.56;5080057;28;45355;-71
2021/12/29 08:58:29;;;;;;;;;6.75;6.25;;;;;13.53;70.67;100430.69;5081244;28;45361;-71
2021/12/29 09:00:55;;;;;;;;;5.00;5.00;;;;;13.59;70.60;100440.25;5060140;28;45807;-71
2021/12/29 09:03:22;;;;;;;;;6.25;5.00;;;;;13.78;70.51;100467.00;5076190;28;45504;-71
2021/12/29 09:05:48;;;;;;;;;6.25;6.25;;;;;13.70;70.83;100454.88;5079760;28;45485;-71
2021/12/29 09:08:13;;;;;;;;;7.25;7.00;;;;;13.78;70.98;100456.28;5067337;27;45421;-69
2021/12/29 09:10:39;;;;;;;;;8.75;7.50;;;;;13.81;70.76;100464.19;5063560;27;45384;-68
2021/12/29 09:13:04;;;;;;;;;7.75;7.75;;;;;13.88;71.17;100468.28;5074666;27;45506;-67
2021/12/29 09:15:30;;;;;;;;;8.00;6.00;;;;;13.83;70.99;100460.50;5077160;27;45816;-67
2021/12/29 09:17:57;;;;;;;;;7.50;5.75;;;;;13.91;71.13;100465.44;5079883;27;46116;-67
2021/12/29 09:20:27;;;;;;;;;14.00;10.00;;;;;13.90;71.16;100461.06;5080505;27;45542;-66
2021/12/29 09:22:56;;;;;;;;;6.75;6.75;;;;;13.88;71.06;100449.50;5073339;28;46229;-66
2021/12/29 09:25:23;;;;;;;;;7.25;6.25;;;;;13.89;71.52;100448.56;5077598;28;45775;-66
2021/12/29 09:27:50;;;;;;;;;7.75;5.75;;;;;13.94;71.19;100461.75;5078078;28;45351;-66
2021/12/29 09:30:20;;;;;;;;;6.75;6.50;;;;;13.94;71.18;100461.75;5058140;28;45470;-66
2021/12/29 09:32:46;;;;;;;;;6.00;6.00;;;;;14.01;71.39;100471.22;5077865;28;45833;-65
2021/12/29 09:35:12;;;;;;;;;6.50;6.50;;;;;14.01;71.32;100476.59;5074103;28;45670;-65
2021/12/29 09:37:39;;;;;;;;;5.25;5.25;;;;;14.00;71.57;100472.16;5077006;28;45448;-65
2021/12/29 09:40:05;;;;;;;;;6.00;6.00;;;;;13.95;71.12;100452.75;5059794;28;45555;-65
2021/12/29 09:42:31;;;;;;;;;10.00;8.25;;;;;14.04;71.49;100460.34;5079439;27;45597;-65
2021/12/29 09:44:57;;;;;;;;;11.00;7.75;;;;;14.03;71.53;100462.16;5062998;28;45829;-66
2021/12/29 09:47:22;;;;;;;;;8.00;7.00;;;;;13.94;71.39;100435.78;5078793;28;45351;-66
2021/12/29 09:49:47;;;;;;;;;7.00;7.00;;;;;14.08;71.62;100459.22;5076227;28;45781;-63
2021/12/29 09:52:13;;;;;;;;;7.75;6.75;;;;;14.10;71.64;100460.03;5059340;28;46893;-66
2021/12/29 09:54:39;;;;;;;;;4.00;4.00;;;;;14.09;71.68;100458.28;5077657;28;45426;-65
2021/12/29 09:57:04;;;;;;;;;6.50;5.25;;;;;14.08;71.97;100454.75;5077166;28;45342;-64
2021/12/29 09:59:30;;;;;;;;;5.50;5.00;;;;;14.08;72.00;100462.78;5074802;28;45880;-66
2021/12/29 10:01:57;;;;;;;;;4.75;4.75;;;;;14.12;71.88;100465.31;5059471;28;47140;-64
2021/12/29 10:04:23;;;;;;;;;5.75;5.75;;;;;14.14;72.15;100466.97;5074996;28;45475;-62
2021/12/29 10:06:48;;;;;;;;;6.75;5.75;;;;;14.17;72.12;100461.44;5078177;27;45509;-62
2021/12/29 10:09:17;;;;;;;;;6.00;6.00;;;;;14.20;72.37;100463.06;5076029;28;45433;-63
2021/12/29 10:11:43;;;;;;;;;6.25;5.25;;;;;14.20;72.20;100460.41;5078560;27;45433;-62
2021/12/29 10:14:11;;;;;;;;;5.25;4.50;;;;;14.19;72.37;100458.69;5078376;28;45232;-64
2021/12/29 10:16:39;;;;;;;;;6.00;6.00;;;;;14.25;72.39;100458.38;5073512;28;45465;-62
2021/12/29 10:19:10;;;;;;;;;6.50;5.25;;;;;14.23;72.13;100452.19;5074322;28;45620;-64
2021/12/29 10:21:40;;;;;;;;;6.75;5.00;;;;;14.30;72.38;100464.38;5066956;28;45574;-64
2021/12/29 10:24:06;;;;;;;;;7.25;5.75;;;;;14.33;72.58;100474.06;5078513;28;45386;-65
2021/12/29 10:26:35;;;;;;;;;7.00;6.75;;;;;14.34;72.21;100471.28;5077670;28;45637;-64
2021/12/29 10:29:07;;;;;;;;;6.25;6.25;;;;;14.37;72.72;100481.03;5078485;28;45504;-65
2021/12/29 10:31:40;;;;;;;;;5.50;5.50;;;;;14.31;72.73;100460.72;5078200;28;46099;-65
2021/12/29 10:34:14;;;;;;;;;7.00;6.00;;;;;14.40;72.72;100478.16;5078153;28;45343;-64
2021/12/29 10:36:44;;;;;;;;;6.25;5.25;;;;;14.45;72.82;100474.28;5077494;27;45572;-64
2021/12/29 10:39:19;;;;;;;;;6.25;5.75;;;;;14.49;72.64;100474.13;5078541;28;45503;-65
2021/12/29 10:42:01;;;;;;;;;5.00;4.75;;;;;14.51;73.17;100482.97;5077737;28;45276;-64
2021/12/29 10:44:30;;;;;;;;;8.75;6.00;;;;;14.52;73.14;100482.91;5077888;28;45610;-64
2021/12/29 10:46:56;;;;;;;;;5.75;5.25;;;;;14.52;73.51;100476.66;5077786;28;45431;-64
2021/12/29 10:49:24;;;;;;;;;5.75;4.00;;;;;14.55;73.18;100484.53;5077774;28;45490;-64
2021/12/29 10:51:50;;;;;;;;;5.25;5.00;;;;;14.55;73.45;100490.78;5078049;28;45390;-64
2021/12/29 10:54:20;;;;;;;;;7.50;7.00;;;;;14.59;73.92;100486.16;5076801;28;45508;-64
2021/12/29 10:57:01;;;;;;;;;6.00;5.00;;;;;14.53;73.36;100478.38;5057493;28;45431;-65
2021/12/29 10:59:31;;;;;;;;;5.25;5.25;;;;;14.60;73.77;100485.19;5070109;27;45632;-65
2021/12/29 11:01:58;;;;;;;;;6.00;5.00;;;;;14.62;73.70;100494.06;5077106;27;48124;-65
2021/12/29 11:04:25;;;;;;;;;5.75;4.00;;;;;14.63;73.30;100501.16;5078826;27;45489;-65
2021/12/29 11:06:55;;;;;;;;;8.50;7.00;;;;;14.67;73.91;100499.16;5081201;27;45416;-68
2021/12/29 11:09:28;;;;;;;;;6.50;6.50;;;;;14.64;74.28;100490.31;5075078;27;45326;-68
2021/12/29 11:11:55;;;;;;;;;4.00;4.00;;;;;14.71;74.24;100493.53;5061590;27;48074;-66
2021/12/29 11:14:32;;;;;;;;;4.75;3.25;;;;;14.74;74.35;100496.06;5081825;27;45316;-63
2021/12/29 11:17:09;;;;;;;;;5.75;4.00;;;;;14.76;74.24;100496.84;5076010;27;45467;-65
2021/12/29 11:19:36;;;;;;;;;5.00;3.00;;;;;14.78;74.71;100492.28;5072593;27;45442;-67
2021/12/29 11:22:11;;;;;;;;;2.00;2.00;;;;;14.82;74.97;100492.97;5075191;28;46258;-67
2021/12/29 11:24:37;;;;;;;;;2.00;2.00;;;;;14.85;75.26;100498.19;5077192;28;45288;-66
2021/12/29 11:27:15;;;;;;;;;0.00;0.00;;;;;14.85;75.65;100498.19;5078993;27;45821;-66
2021/12/29 11:29:55;;;;;;;;;0.00;0.00;;;;;14.90;75.62;100506.00;5080749;27;45503;-66